sensor_id;sensor_type;location;lat;lon;timestamp;P1;durP1;ratioP1;P2;durP2;ratioP2
59109;SDS011;44895;47.438;18.978;2023-01-15T00:00:38;41.00;;;23.40;;
59109;SDS011;44895;47.438;18.978;2023-01-15T00:03:42;32.47;;;21.02;;
59109;SDS011;44895;47.438;18.978;2023-01-15T00:06:45;34.15;;;23.55;;
59109;SDS011;44895;47.438;18.978;2023-01-15T00:09:49;40.60;;;22.15;;
59109;SDS011;44895;47.438;18.978;2023-01-15T00:12:53;32.38;;;19.52;;
59109;SDS011;44895;47.438;18.978;2023-01-15T00:16:07;41.95;;;23.02;;
59109;SDS011;44895;47.438;18.978;2023-01-15T00:19:18;37.20;;;20.02;;
59109;SDS011;44895;47.438;18.978;2023-01-15T00:22:22;37.17;;;21.63;;
59109;SDS011;44895;47.438;18.978;2023-01-15T00:25:26;30.33;;;20.38;;
59109;SDS011;44895;47.438;18.978;2023-01-15T00:28:49;38.30;;;18.58;;
59109;SDS011;44895;47.438;18.978;2023-01-15T00:31:58;29.67;;;18.58;;
59109;SDS011;44895;47.438;18.978;2023-01-15T00:35:08;25.95;;;17.75;;
59109;SDS011;44895;47.438;18.978;2023-01-15T00:38:18;29.08;;;16.95;;
59109;SDS011;44895;47.438;18.978;2023-01-15T00:41:22;30.48;;;17.90;;
59109;SDS011;44895;47.438;18.978;2023-01-15T00:44:26;38.17;;;17.88;;
59109;SDS011;44895;47.438;18.978;2023-01-15T00:47:30;32.97;;;18.52;;
59109;SDS011;44895;47.438;18.978;2023-01-15T00:50:33;41.13;;;17.15;;
59109;SDS011;44895;47.438;18.978;2023-01-15T00:53:37;31.42;;;17.67;;
59109;SDS011;44895;47.438;18.978;2023-01-15T00:56:41;26.63;;;18.60;;
59109;SDS011;44895;47.438;18.978;2023-01-15T00:59:45;36.15;;;19.65;;
59109;SDS011;44895;47.438;18.978;2023-01-15T01:02:48;33.88;;;18.90;;
59109;SDS011;44895;47.438;18.978;2023-01-15T01:05:52;26.90;;;16.83;;
59109;SDS011;44895;47.438;18.978;2023-01-15T01:08:56;28.42;;;18.08;;
59109;SDS011;44895;47.438;18.978;2023-01-15T01:12:00;24.27;;;16.80;;
59109;SDS011;44895;47.438;18.978;2023-01-15T01:15:04;29.33;;;17.63;;
59109;SDS011;44895;47.438;18.978;2023-01-15T01:18:07;26.45;;;17.20;;
59109;SDS011;44895;47.438;18.978;2023-01-15T01:21:11;29.35;;;20.85;;
59109;SDS011;44895;47.438;18.978;2023-01-15T01:24:16;30.85;;;19.05;;
59109;SDS011;44895;47.438;18.978;2023-01-15T01:27:22;32.50;;;19.35;;
59109;SDS011;44895;47.438;18.978;2023-01-15T01:30:25;52.50;;;16.88;;
59109;SDS011;44895;47.438;18.978;2023-01-15T01:33:29;26.70;;;16.35;;
59109;SDS011;44895;47.438;18.978;2023-01-15T01:36:34;27.63;;;16.02;;
59109;SDS011;44895;47.438;18.978;2023-01-15T01:39:38;23.95;;;14.50;;
59109;SDS011;44895;47.438;18.978;2023-01-15T01:42:42;25.15;;;17.35;;
59109;SDS011;44895;47.438;18.978;2023-01-15T01:45:46;28.67;;;17.63;;
59109;SDS011;44895;47.438;18.978;2023-01-15T01:48:51;27.85;;;15.23;;
59109;SDS011;44895;47.438;18.978;2023-01-15T01:52:07;27.33;;;16.03;;
59109;SDS011;44895;47.438;18.978;2023-01-15T01:55:17;33.05;;;18.00;;
59109;SDS011;44895;47.438;18.978;2023-01-15T01:58:25;31.38;;;14.18;;
59109;SDS011;44895;47.438;18.978;2023-01-15T02:01:33;27.80;;;14.15;;
59109;SDS011;44895;47.438;18.978;2023-01-15T02:04:37;25.13;;;13.90;;
59109;SDS011;44895;47.438;18.978;2023-01-15T02:07:42;26.40;;;14.73;;
59109;SDS011;44895;47.438;18.978;2023-01-15T02:10:46;27.27;;;13.90;;
59109;SDS011;44895;47.438;18.978;2023-01-15T02:13:57;20.42;;;12.82;;
59109;SDS011;44895;47.438;18.978;2023-01-15T02:17:14;30.58;;;15.15;;
59109;SDS011;44895;47.438;18.978;2023-01-15T02:27:06;23.30;;;14.90;;
59109;SDS011;44895;47.438;18.978;2023-01-15T02:30:17;23.65;;;16.75;;
59109;SDS011;44895;47.438;18.978;2023-01-15T02:33:34;24.55;;;15.68;;
59109;SDS011;44895;47.438;18.978;2023-01-15T02:36:42;26.23;;;15.02;;
59109;SDS011;44895;47.438;18.978;2023-01-15T02:39:57;27.77;;;14.73;;
59109;SDS011;44895;47.438;18.978;2023-01-15T02:43:04;40.22;;;16.67;;
59109;SDS011;44895;47.438;18.978;2023-01-15T02:46:09;25.63;;;15.52;;
59109;SDS011;44895;47.438;18.978;2023-01-15T02:49:18;50.22;;;20.00;;
59109;SDS011;44895;47.438;18.978;2023-01-15T02:55:31;23.83;;;16.83;;
59109;SDS011;44895;47.438;18.978;2023-01-15T02:58:41;26.65;;;16.50;;
59109;SDS011;44895;47.438;18.978;2023-01-15T03:01:52;27.47;;;15.63;;
59109;SDS011;44895;47.438;18.978;2023-01-15T03:05:15;33.53;;;16.70;;
59109;SDS011;44895;47.438;18.978;2023-01-15T03:08:24;28.23;;;13.68;;
59109;SDS011;44895;47.438;18.978;2023-01-15T03:11:30;31.30;;;15.98;;
59109;SDS011;44895;47.438;18.978;2023-01-15T03:14:49;37.95;;;13.82;;
59109;SDS011;44895;47.438;18.978;2023-01-15T03:18:00;24.70;;;14.48;;
59109;SDS011;44895;47.438;18.978;2023-01-15T03:21:09;26.30;;;13.68;;
59109;SDS011;44895;47.438;18.978;2023-01-15T03:24:20;21.73;;;12.60;;
59109;SDS011;44895;47.438;18.978;2023-01-15T03:30:40;36.85;;;14.07;;
59109;SDS011;44895;47.438;18.978;2023-01-15T03:33:44;31.65;;;15.93;;
59109;SDS011;44895;47.438;18.978;2023-01-15T03:36:52;30.35;;;13.57;;
59109;SDS011;44895;47.438;18.978;2023-01-15T03:39:56;29.10;;;13.52;;
59109;SDS011;44895;47.438;18.978;2023-01-15T03:43:04;27.58;;;14.05;;
59109;SDS011;44895;47.438;18.978;2023-01-15T03:49:43;20.05;;;13.93;;
59109;SDS011;44895;47.438;18.978;2023-01-15T03:53:19;21.65;;;13.60;;
59109;SDS011;44895;47.438;18.978;2023-01-15T03:56:48;25.10;;;14.80;;
59109;SDS011;44895;47.438;18.978;2023-01-15T04:00:00;23.27;;;13.07;;
59109;SDS011;44895;47.438;18.978;2023-01-15T04:03:19;36.92;;;15.85;;
59109;SDS011;44895;47.438;18.978;2023-01-15T04:06:26;27.90;;;15.07;;
59109;SDS011;44895;47.438;18.978;2023-01-15T04:09:37;25.65;;;13.43;;
59109;SDS011;44895;47.438;18.978;2023-01-15T04:12:44;27.98;;;13.43;;
59109;SDS011;44895;47.438;18.978;2023-01-15T04:15:48;24.90;;;14.15;;
59109;SDS011;44895;47.438;18.978;2023-01-15T04:18:55;26.38;;;11.77;;
59109;SDS011;44895;47.438;18.978;2023-01-15T04:22:00;26.38;;;13.15;;
59109;SDS011;44895;47.438;18.978;2023-01-15T04:25:04;23.58;;;14.75;;
59109;SDS011;44895;47.438;18.978;2023-01-15T04:28:09;23.90;;;13.95;;
59109;SDS011;44895;47.438;18.978;2023-01-15T04:31:13;23.85;;;15.85;;
59109;SDS011;44895;47.438;18.978;2023-01-15T04:34:17;21.13;;;12.43;;
59109;SDS011;44895;47.438;18.978;2023-01-15T04:37:22;22.83;;;12.93;;
59109;SDS011;44895;47.438;18.978;2023-01-15T04:40:26;28.80;;;16.17;;
59109;SDS011;44895;47.438;18.978;2023-01-15T04:43:48;28.83;;;14.45;;
59109;SDS011;44895;47.438;18.978;2023-01-15T04:47:10;21.83;;;14.27;;
59109;SDS011;44895;47.438;18.978;2023-01-15T04:50:14;18.33;;;10.82;;
59109;SDS011;44895;47.438;18.978;2023-01-15T04:53:18;21.48;;;12.80;;
59109;SDS011;44895;47.438;18.978;2023-01-15T04:56:21;23.50;;;15.77;;
59109;SDS011;44895;47.438;18.978;2023-01-15T04:59:26;20.92;;;14.88;;
59109;SDS011;44895;47.438;18.978;2023-01-15T05:02:30;22.50;;;13.00;;
59109;SDS011;44895;47.438;18.978;2023-01-15T05:05:34;20.98;;;11.95;;
59109;SDS011;44895;47.438;18.978;2023-01-15T05:08:38;22.30;;;15.00;;
59109;SDS011;44895;47.438;18.978;2023-01-15T05:11:41;20.63;;;12.52;;
59109;SDS011;44895;47.438;18.978;2023-01-15T05:14:45;22.17;;;13.93;;
59109;SDS011;44895;47.438;18.978;2023-01-15T05:17:48;26.83;;;14.48;;
59109;SDS011;44895;47.438;18.978;2023-01-15T05:20:52;22.40;;;11.73;;
59109;SDS011;44895;47.438;18.978;2023-01-15T05:23:56;33.25;;;15.07;;
59109;SDS011;44895;47.438;18.978;2023-01-15T05:27:02;27.45;;;13.50;;
59109;SDS011;44895;47.438;18.978;2023-01-15T05:30:08;23.63;;;12.65;;
59109;SDS011;44895;47.438;18.978;2023-01-15T05:33:12;42.95;;;17.00;;
59109;SDS011;44895;47.438;18.978;2023-01-15T05:36:18;21.98;;;13.65;;
59109;SDS011;44895;47.438;18.978;2023-01-15T05:39:23;20.05;;;11.88;;
59109;SDS011;44895;47.438;18.978;2023-01-15T05:42:27;23.13;;;13.75;;
59109;SDS011;44895;47.438;18.978;2023-01-15T05:45:33;29.35;;;14.10;;
59109;SDS011;44895;47.438;18.978;2023-01-15T05:48:37;20.70;;;10.40;;
59109;SDS011;44895;47.438;18.978;2023-01-15T05:51:41;23.33;;;12.20;;
59109;SDS011;44895;47.438;18.978;2023-01-15T05:54:45;22.27;;;11.32;;
59109;SDS011;44895;47.438;18.978;2023-01-15T05:57:51;19.08;;;11.07;;
59109;SDS011;44895;47.438;18.978;2023-01-15T06:00:55;21.38;;;11.40;;
59109;SDS011;44895;47.438;18.978;2023-01-15T06:04:00;21.05;;;12.48;;
59109;SDS011;44895;47.438;18.978;2023-01-15T06:07:04;18.10;;;12.10;;
59109;SDS011;44895;47.438;18.978;2023-01-15T06:10:08;20.35;;;12.25;;
59109;SDS011;44895;47.438;18.978;2023-01-15T06:13:13;19.85;;;11.43;;
59109;SDS011;44895;47.438;18.978;2023-01-15T06:16:18;22.77;;;12.82;;
59109;SDS011;44895;47.438;18.978;2023-01-15T06:19:21;22.52;;;13.73;;
59109;SDS011;44895;47.438;18.978;2023-01-15T06:22:25;24.88;;;11.93;;
59109;SDS011;44895;47.438;18.978;2023-01-15T06:25:31;22.02;;;12.45;;
59109;SDS011;44895;47.438;18.978;2023-01-15T06:28:37;17.35;;;10.32;;
59109;SDS011;44895;47.438;18.978;2023-01-15T06:31:42;20.40;;;12.63;;
59109;SDS011;44895;47.438;18.978;2023-01-15T06:34:45;21.20;;;12.38;;
59109;SDS011;44895;47.438;18.978;2023-01-15T06:37:49;20.05;;;11.63;;
59109;SDS011;44895;47.438;18.978;2023-01-15T06:40:53;31.13;;;13.57;;
59109;SDS011;44895;47.438;18.978;2023-01-15T06:43:57;20.55;;;14.20;;
59109;SDS011;44895;47.438;18.978;2023-01-15T06:47:19;23.50;;;13.77;;
59109;SDS011;44895;47.438;18.978;2023-01-15T06:50:23;22.52;;;14.93;;
59109;SDS011;44895;47.438;18.978;2023-01-15T06:53:28;27.27;;;13.82;;
59109;SDS011;44895;47.438;18.978;2023-01-15T06:56:31;26.70;;;14.57;;
59109;SDS011;44895;47.438;18.978;2023-01-15T06:59:35;25.00;;;13.63;;
59109;SDS011;44895;47.438;18.978;2023-01-15T07:02:39;19.48;;;12.77;;
59109;SDS011;44895;47.438;18.978;2023-01-15T07:05:43;27.75;;;13.57;;
59109;SDS011;44895;47.438;18.978;2023-01-15T07:08:47;28.02;;;13.60;;
59109;SDS011;44895;47.438;18.978;2023-01-15T07:11:50;21.33;;;13.02;;
59109;SDS011;44895;47.438;18.978;2023-01-15T07:14:54;24.40;;;14.80;;
59109;SDS011;44895;47.438;18.978;2023-01-15T07:17:58;23.05;;;13.07;;
59109;SDS011;44895;47.438;18.978;2023-01-15T07:21:02;24.73;;;15.27;;
59109;SDS011;44895;47.438;18.978;2023-01-15T07:24:05;20.70;;;12.57;;
59109;SDS011;44895;47.438;18.978;2023-01-15T07:27:09;31.00;;;15.90;;
59109;SDS011;44895;47.438;18.978;2023-01-15T07:30:13;25.95;;;13.65;;
59109;SDS011;44895;47.438;18.978;2023-01-15T07:33:17;26.63;;;15.20;;
59109;SDS011;44895;47.438;18.978;2023-01-15T07:36:21;23.77;;;14.85;;
59109;SDS011;44895;47.438;18.978;2023-01-15T07:39:25;24.95;;;16.00;;
59109;SDS011;44895;47.438;18.978;2023-01-15T07:42:30;24.90;;;15.52;;
59109;SDS011;44895;47.438;18.978;2023-01-15T07:45:54;27.17;;;17.45;;
59109;SDS011;44895;47.438;18.978;2023-01-15T07:49:16;22.88;;;16.15;;
59109;SDS011;44895;47.438;18.978;2023-01-15T07:52:38;23.52;;;15.35;;
59109;SDS011;44895;47.438;18.978;2023-01-15T07:55:42;26.45;;;16.02;;
59109;SDS011;44895;47.438;18.978;2023-01-15T07:58:45;28.55;;;15.35;;
59109;SDS011;44895;47.438;18.978;2023-01-15T08:01:52;25.38;;;17.73;;
59109;SDS011;44895;47.438;18.978;2023-01-15T08:04:56;28.80;;;16.20;;
59109;SDS011;44895;47.438;18.978;2023-01-15T08:08:00;27.75;;;17.45;;
59109;SDS011;44895;47.438;18.978;2023-01-15T08:11:03;27.13;;;15.88;;
59109;SDS011;44895;47.438;18.978;2023-01-15T08:14:25;27.05;;;15.48;;
59109;SDS011;44895;47.438;18.978;2023-01-15T08:17:48;31.88;;;17.10;;
59109;SDS011;44895;47.438;18.978;2023-01-15T08:20:53;25.67;;;17.40;;
59109;SDS011;44895;47.438;18.978;2023-01-15T08:23:57;28.45;;;15.68;;
59109;SDS011;44895;47.438;18.978;2023-01-15T08:27:01;23.88;;;17.38;;
59109;SDS011;44895;47.438;18.978;2023-01-15T08:30:05;25.50;;;16.60;;
59109;SDS011;44895;47.438;18.978;2023-01-15T08:33:10;25.80;;;16.05;;
59109;SDS011;44895;47.438;18.978;2023-01-15T08:36:14;29.17;;;17.45;;
59109;SDS011;44895;47.438;18.978;2023-01-15T08:39:19;29.50;;;17.27;;
59109;SDS011;44895;47.438;18.978;2023-01-15T08:42:23;25.58;;;15.00;;
59109;SDS011;44895;47.438;18.978;2023-01-15T08:45:26;25.27;;;17.17;;
59109;SDS011;44895;47.438;18.978;2023-01-15T08:48:30;29.00;;;17.70;;
59109;SDS011;44895;47.438;18.978;2023-01-15T08:51:35;24.67;;;17.23;;
59109;SDS011;44895;47.438;18.978;2023-01-15T08:54:39;29.13;;;16.77;;
59109;SDS011;44895;47.438;18.978;2023-01-15T08:57:42;25.88;;;16.75;;
59109;SDS011;44895;47.438;18.978;2023-01-15T09:00:47;26.55;;;16.13;;
59109;SDS011;44895;47.438;18.978;2023-01-15T09:03:53;22.27;;;15.32;;
59109;SDS011;44895;47.438;18.978;2023-01-15T09:06:57;24.15;;;14.93;;
59109;SDS011;44895;47.438;18.978;2023-01-15T09:10:00;21.98;;;14.20;;
59109;SDS011;44895;47.438;18.978;2023-01-15T09:13:04;23.10;;;16.73;;
59109;SDS011;44895;47.438;18.978;2023-01-15T09:16:08;24.98;;;16.80;;
59109;SDS011;44895;47.438;18.978;2023-01-15T09:19:12;24.80;;;17.17;;
59109;SDS011;44895;47.438;18.978;2023-01-15T09:22:16;25.40;;;16.17;;
59109;SDS011;44895;47.438;18.978;2023-01-15T09:25:20;24.52;;;17.92;;
59109;SDS011;44895;47.438;18.978;2023-01-15T09:28:27;24.33;;;16.35;;
59109;SDS011;44895;47.438;18.978;2023-01-15T09:31:31;23.33;;;14.52;;
59109;SDS011;44895;47.438;18.978;2023-01-15T09:34:35;25.80;;;15.02;;
59109;SDS011;44895;47.438;18.978;2023-01-15T09:37:39;26.58;;;14.82;;
59109;SDS011;44895;47.438;18.978;2023-01-15T09:40:47;22.45;;;13.73;;
59109;SDS011;44895;47.438;18.978;2023-01-15T09:43:57;20.15;;;14.60;;
59109;SDS011;44895;47.438;18.978;2023-01-15T09:47:23;22.48;;;14.32;;
59109;SDS011;44895;47.438;18.978;2023-01-15T09:57:18;20.38;;;14.60;;
59109;SDS011;44895;47.438;18.978;2023-01-15T10:00:25;24.05;;;14.50;;
59109;SDS011;44895;47.438;18.978;2023-01-15T10:06:54;20.75;;;13.50;;
59109;SDS011;44895;47.438;18.978;2023-01-15T10:10:08;20.63;;;13.13;;
59109;SDS011;44895;47.438;18.978;2023-01-15T10:13:33;20.70;;;15.48;;
59109;SDS011;44895;47.438;18.978;2023-01-15T10:16:39;19.63;;;15.93;;
59109;SDS011;44895;47.438;18.978;2023-01-15T10:19:43;20.70;;;12.82;;
59109;SDS011;44895;47.438;18.978;2023-01-15T10:26:07;20.38;;;13.05;;
59109;SDS011;44895;47.438;18.978;2023-01-15T10:32:50;16.63;;;11.20;;
59109;SDS011;44895;47.438;18.978;2023-01-15T10:36:00;20.75;;;13.75;;
59109;SDS011;44895;47.438;18.978;2023-01-15T10:45:38;15.90;;;10.38;;
59109;SDS011;44895;47.438;18.978;2023-01-15T10:48:54;16.33;;;9.68;;
59109;SDS011;44895;47.438;18.978;2023-01-15T10:55:24;17.17;;;11.13;;
59109;SDS011;44895;47.438;18.978;2023-01-15T10:58:49;16.45;;;11.13;;
59109;SDS011;44895;47.438;18.978;2023-01-15T11:01:59;15.20;;;9.77;;
59109;SDS011;44895;47.438;18.978;2023-01-15T11:05:08;18.10;;;11.55;;
59109;SDS011;44895;47.438;18.978;2023-01-15T11:08:21;18.80;;;12.43;;
59109;SDS011;44895;47.438;18.978;2023-01-15T11:11:40;15.27;;;10.23;;
59109;SDS011;44895;47.438;18.978;2023-01-15T11:14:59;15.00;;;9.87;;
59109;SDS011;44895;47.438;18.978;2023-01-15T11:18:28;19.02;;;13.02;;
59109;SDS011;44895;47.438;18.978;2023-01-15T11:21:56;16.98;;;10.73;;
59109;SDS011;44895;47.438;18.978;2023-01-15T11:25:00;16.05;;;11.80;;
59109;SDS011;44895;47.438;18.978;2023-01-15T11:28:06;15.48;;;11.43;;
59109;SDS011;44895;47.438;18.978;2023-01-15T11:31:12;18.73;;;11.32;;
59109;SDS011;44895;47.438;18.978;2023-01-15T11:34:18;17.15;;;10.88;;
59109;SDS011;44895;47.438;18.978;2023-01-15T11:37:24;21.53;;;12.97;;
59109;SDS011;44895;47.438;18.978;2023-01-15T11:40:32;17.58;;;11.13;;
59109;SDS011;44895;47.438;18.978;2023-01-15T11:43:36;21.25;;;13.07;;
59109;SDS011;44895;47.438;18.978;2023-01-15T11:47:18;18.35;;;10.60;;
59109;SDS011;44895;47.438;18.978;2023-01-15T11:50:51;17.05;;;11.50;;
59109;SDS011;44895;47.438;18.978;2023-01-15T11:54:03;18.77;;;11.70;;
59109;SDS011;44895;47.438;18.978;2023-01-15T11:57:10;18.67;;;10.30;;
59109;SDS011;44895;47.438;18.978;2023-01-15T12:00:27;17.35;;;10.90;;
59109;SDS011;44895;47.438;18.978;2023-01-15T12:03:34;19.05;;;10.45;;
59109;SDS011;44895;47.438;18.978;2023-01-15T12:06:39;18.58;;;11.77;;
59109;SDS011;44895;47.438;18.978;2023-01-15T12:13:19;21.77;;;12.23;;
59109;SDS011;44895;47.438;18.978;2023-01-15T12:20:28;17.60;;;11.63;;
59109;SDS011;44895;47.438;18.978;2023-01-15T12:31:02;17.85;;;11.23;;
59109;SDS011;44895;47.438;18.978;2023-01-15T12:34:21;18.17;;;12.27;;
59109;SDS011;44895;47.438;18.978;2023-01-15T12:37:33;16.17;;;11.20;;
59109;SDS011;44895;47.438;18.978;2023-01-15T12:40:53;15.90;;;9.63;;
59109;SDS011;44895;47.438;18.978;2023-01-15T12:44:02;16.63;;;8.85;;
59109;SDS011;44895;47.438;18.978;2023-01-15T12:47:31;18.60;;;9.75;;
59109;SDS011;44895;47.438;18.978;2023-01-15T12:50:55;15.90;;;9.40;;
59109;SDS011;44895;47.438;18.978;2023-01-15T12:54:09;18.23;;;11.80;;
59109;SDS011;44895;47.438;18.978;2023-01-15T12:57:30;14.27;;;9.98;;
59109;SDS011;44895;47.438;18.978;2023-01-15T13:00:38;16.77;;;8.82;;
59109;SDS011;44895;47.438;18.978;2023-01-15T13:03:50;17.88;;;9.18;;
59109;SDS011;44895;47.438;18.978;2023-01-15T13:07:19;14.13;;;8.23;;
59109;SDS011;44895;47.438;18.978;2023-01-15T13:10:29;17.55;;;10.02;;
59109;SDS011;44895;47.438;18.978;2023-01-15T13:13:38;16.23;;;9.32;;
59109;SDS011;44895;47.438;18.978;2023-01-15T13:16:57;15.73;;;9.35;;
59109;SDS011;44895;47.438;18.978;2023-01-15T13:23:40;17.52;;;9.65;;
59109;SDS011;44895;47.438;18.978;2023-01-15T13:33:47;15.85;;;10.95;;
59109;SDS011;44895;47.438;18.978;2023-01-15T13:36:58;17.85;;;10.80;;
59109;SDS011;44895;47.438;18.978;2023-01-15T13:43:43;12.55;;;7.97;;
59109;SDS011;44895;47.438;18.978;2023-01-15T13:46:47;17.65;;;10.90;;
59109;SDS011;44895;47.438;18.978;2023-01-15T13:50:05;17.77;;;9.73;;
59109;SDS011;44895;47.438;18.978;2023-01-15T13:53:21;17.00;;;9.70;;
59109;SDS011;44895;47.438;18.978;2023-01-15T13:56:29;17.20;;;9.90;;
59109;SDS011;44895;47.438;18.978;2023-01-15T14:02:53;16.67;;;10.15;;
59109;SDS011;44895;47.438;18.978;2023-01-15T14:06:00;19.20;;;10.65;;
59109;SDS011;44895;47.438;18.978;2023-01-15T14:09:10;14.23;;;9.30;;
59109;SDS011;44895;47.438;18.978;2023-01-15T14:15:53;17.85;;;10.90;;
59109;SDS011;44895;47.438;18.978;2023-01-15T14:19:15;15.40;;;9.52;;
59109;SDS011;44895;47.438;18.978;2023-01-15T14:25:52;11.43;;;8.18;;
59109;SDS011;44895;47.438;18.978;2023-01-15T14:32:59;18.13;;;10.52;;
59109;SDS011;44895;47.438;18.978;2023-01-15T14:36:29;16.27;;;9.35;;
59109;SDS011;44895;47.438;18.978;2023-01-15T14:42:52;14.80;;;10.02;;
59109;SDS011;44895;47.438;18.978;2023-01-15T14:46:12;18.13;;;11.80;;
59109;SDS011;44895;47.438;18.978;2023-01-15T14:49:31;23.52;;;10.88;;
59109;SDS011;44895;47.438;18.978;2023-01-15T14:52:51;17.63;;;10.98;;
59109;SDS011;44895;47.438;18.978;2023-01-15T14:56:03;17.75;;;9.50;;
59109;SDS011;44895;47.438;18.978;2023-01-15T14:59:18;15.32;;;8.55;;
59109;SDS011;44895;47.438;18.978;2023-01-15T15:02:35;17.98;;;9.73;;
59109;SDS011;44895;47.438;18.978;2023-01-15T15:05:42;17.85;;;11.10;;
59109;SDS011;44895;47.438;18.978;2023-01-15T15:08:49;16.98;;;9.70;;
59109;SDS011;44895;47.438;18.978;2023-01-15T15:11:58;17.85;;;9.90;;
59109;SDS011;44895;47.438;18.978;2023-01-15T15:18:44;20.03;;;11.07;;
59109;SDS011;44895;47.438;18.978;2023-01-15T15:22:01;18.67;;;11.18;;
59109;SDS011;44895;47.438;18.978;2023-01-15T15:25:09;22.10;;;11.60;;
59109;SDS011;44895;47.438;18.978;2023-01-15T15:28:22;17.38;;;10.15;;
59109;SDS011;44895;47.438;18.978;2023-01-15T15:31:26;18.55;;;10.90;;
59109;SDS011;44895;47.438;18.978;2023-01-15T15:34:37;22.30;;;13.95;;
59109;SDS011;44895;47.438;18.978;2023-01-15T15:37:43;17.98;;;12.05;;
59109;SDS011;44895;47.438;18.978;2023-01-15T15:40:49;18.10;;;11.05;;
59109;SDS011;44895;47.438;18.978;2023-01-15T15:47:19;20.33;;;12.98;;
59109;SDS011;44895;47.438;18.978;2023-01-15T15:50:46;21.80;;;15.00;;
59109;SDS011;44895;47.438;18.978;2023-01-15T15:54:00;21.75;;;14.82;;
59109;SDS011;44895;47.438;18.978;2023-01-15T15:57:16;23.50;;;14.38;;
59109;SDS011;44895;47.438;18.978;2023-01-15T16:00:24;23.80;;;16.25;;
59109;SDS011;44895;47.438;18.978;2023-01-15T16:03:51;21.00;;;14.82;;
59109;SDS011;44895;47.438;18.978;2023-01-15T16:06:54;24.35;;;14.98;;
59109;SDS011;44895;47.438;18.978;2023-01-15T16:10:03;21.05;;;13.50;;
59109;SDS011;44895;47.438;18.978;2023-01-15T16:16:36;23.05;;;15.10;;
59109;SDS011;44895;47.438;18.978;2023-01-15T16:19:41;23.48;;;17.25;;
59109;SDS011;44895;47.438;18.978;2023-01-15T16:22:56;21.88;;;15.48;;
59109;SDS011;44895;47.438;18.978;2023-01-15T16:32:41;23.63;;;14.20;;
59109;SDS011;44895;47.438;18.978;2023-01-15T16:35:47;24.02;;;13.57;;
59109;SDS011;44895;47.438;18.978;2023-01-15T16:38:52;20.08;;;13.68;;
59109;SDS011;44895;47.438;18.978;2023-01-15T16:41:57;28.05;;;16.75;;
59109;SDS011;44895;47.438;18.978;2023-01-15T16:45:39;28.83;;;15.93;;
59109;SDS011;44895;47.438;18.978;2023-01-15T16:48:36;25.15;;;15.30;;
59109;SDS011;44895;47.438;18.978;2023-01-15T16:51:40;23.67;;;15.52;;
59109;SDS011;44895;47.438;18.978;2023-01-15T16:54:46;19.92;;;14.27;;
59109;SDS011;44895;47.438;18.978;2023-01-15T16:57:53;27.55;;;17.15;;
59109;SDS011;44895;47.438;18.978;2023-01-15T17:01:22;25.73;;;17.17;;
59109;SDS011;44895;47.438;18.978;2023-01-15T17:04:44;26.27;;;18.15;;
59109;SDS011;44895;47.438;18.978;2023-01-15T17:07:50;27.48;;;19.23;;
59109;SDS011;44895;47.438;18.978;2023-01-15T17:10:58;28.10;;;18.35;;
59109;SDS011;44895;47.438;18.978;2023-01-15T17:14:18;26.65;;;17.17;;
59109;SDS011;44895;47.438;18.978;2023-01-15T17:17:23;33.25;;;19.25;;
59109;SDS011;44895;47.438;18.978;2023-01-15T17:20:30;29.42;;;18.10;;
59109;SDS011;44895;47.438;18.978;2023-01-15T17:23:38;32.22;;;20.40;;
59109;SDS011;44895;47.438;18.978;2023-01-15T17:26:44;26.42;;;19.50;;
59109;SDS011;44895;47.438;18.978;2023-01-15T17:29:49;27.65;;;19.02;;
59109;SDS011;44895;47.438;18.978;2023-01-15T17:32:53;29.77;;;19.92;;
59109;SDS011;44895;47.438;18.978;2023-01-15T17:35:58;29.42;;;19.92;;
59109;SDS011;44895;47.438;18.978;2023-01-15T17:39:03;32.30;;;21.83;;
59109;SDS011;44895;47.438;18.978;2023-01-15T17:42:14;29.45;;;20.83;;
59109;SDS011;44895;47.438;18.978;2023-01-15T17:45:22;33.90;;;20.65;;
59109;SDS011;44895;47.438;18.978;2023-01-15T17:48:27;30.33;;;21.10;;
59109;SDS011;44895;47.438;18.978;2023-01-15T17:51:33;29.55;;;20.02;;
59109;SDS011;44895;47.438;18.978;2023-01-15T17:54:37;31.80;;;20.65;;
59109;SDS011;44895;47.438;18.978;2023-01-15T17:58:00;28.98;;;19.88;;
59109;SDS011;44895;47.438;18.978;2023-01-15T18:01:23;30.20;;;18.80;;
59109;SDS011;44895;47.438;18.978;2023-01-15T18:04:51;29.83;;;20.45;;
59109;SDS011;44895;47.438;18.978;2023-01-15T18:08:15;34.85;;;22.50;;
59109;SDS011;44895;47.438;18.978;2023-01-15T18:11:21;31.70;;;23.08;;
59109;SDS011;44895;47.438;18.978;2023-01-15T18:14:26;32.63;;;21.40;;
59109;SDS011;44895;47.438;18.978;2023-01-15T18:17:30;35.33;;;21.75;;
59109;SDS011;44895;47.438;18.978;2023-01-15T18:20:35;29.45;;;20.23;;
59109;SDS011;44895;47.438;18.978;2023-01-15T18:23:41;31.17;;;19.27;;
59109;SDS011;44895;47.438;18.978;2023-01-15T18:26:45;33.28;;;22.45;;
59109;SDS011;44895;47.438;18.978;2023-01-15T18:29:50;32.53;;;22.75;;
59109;SDS011;44895;47.438;18.978;2023-01-15T18:32:54;31.58;;;23.33;;
59109;SDS011;44895;47.438;18.978;2023-01-15T18:36:02;29.23;;;20.73;;
59109;SDS011;44895;47.438;18.978;2023-01-15T18:39:07;29.63;;;18.63;;
59109;SDS011;44895;47.438;18.978;2023-01-15T18:42:14;38.45;;;24.38;;
59109;SDS011;44895;47.438;18.978;2023-01-15T18:45:19;31.83;;;20.92;;
59109;SDS011;44895;47.438;18.978;2023-01-15T18:48:42;34.05;;;20.70;;
59109;SDS011;44895;47.438;18.978;2023-01-15T18:51:46;30.45;;;21.60;;
59109;SDS011;44895;47.438;18.978;2023-01-15T18:55:09;35.97;;;23.70;;
59109;SDS011;44895;47.438;18.978;2023-01-15T18:58:14;31.00;;;22.90;;
59109;SDS011;44895;47.438;18.978;2023-01-15T19:01:18;42.00;;;31.42;;
59109;SDS011;44895;47.438;18.978;2023-01-15T19:04:23;33.63;;;26.33;;
59109;SDS011;44895;47.438;18.978;2023-01-15T19:07:27;38.10;;;27.80;;
59109;SDS011;44895;47.438;18.978;2023-01-15T19:10:31;40.20;;;26.63;;
59109;SDS011;44895;47.438;18.978;2023-01-15T19:13:36;35.90;;;25.60;;
59109;SDS011;44895;47.438;18.978;2023-01-15T19:16:41;36.83;;;25.08;;
59109;SDS011;44895;47.438;18.978;2023-01-15T19:20:03;34.20;;;25.45;;
59109;SDS011;44895;47.438;18.978;2023-01-15T19:23:11;35.85;;;23.02;;
59109;SDS011;44895;47.438;18.978;2023-01-15T19:26:18;37.13;;;26.70;;
59109;SDS011;44895;47.438;18.978;2023-01-15T19:29:22;36.47;;;25.95;;
59109;SDS011;44895;47.438;18.978;2023-01-15T19:32:28;41.55;;;28.55;;
59109;SDS011;44895;47.438;18.978;2023-01-15T19:35:35;41.33;;;27.67;;
59109;SDS011;44895;47.438;18.978;2023-01-15T19:38:41;42.80;;;28.13;;
59109;SDS011;44895;47.438;18.978;2023-01-15T19:41:45;45.58;;;31.15;;
59109;SDS011;44895;47.438;18.978;2023-01-15T19:45:08;40.03;;;29.05;;
59109;SDS011;44895;47.438;18.978;2023-01-15T19:48:32;48.03;;;31.10;;
59109;SDS011;44895;47.438;18.978;2023-01-15T19:51:54;47.83;;;31.83;;
59109;SDS011;44895;47.438;18.978;2023-01-15T19:55:20;45.20;;;33.03;;
59109;SDS011;44895;47.438;18.978;2023-01-15T19:58:25;39.47;;;29.75;;